sensor_id;sensor_type;location;lat;lon;timestamp;pressure;altitude;pressure_sealevel;temperature;humidity
16255;BME280;8235;52.198;9.904;2022-11-18T00:01:25;99172.91;;;5.17;100.00
16255;BME280;8235;52.198;9.904;2022-11-18T00:03:52;99176.38;;;5.18;100.00
16255;BME280;8235;52.198;9.904;2022-11-18T00:06:20;99182.50;;;5.18;100.00
16255;BME280;8235;52.198;9.904;2022-11-18T00:08:47;99186.94;;;5.18;100.00
16255;BME280;8235;52.198;9.904;2022-11-18T00:11:16;99174.69;;;5.17;100.00
16255;BME280;8235;52.198;9.904;2022-11-18T00:14:04;99184.50;;;5.15;100.00
16255;BME280;8235;52.198;9.904;2022-11-18T00:16:46;99177.41;;;5.15;100.00
16255;BME280;8235;52.198;9.904;2022-11-18T00:19:12;99176.56;;;5.15;100.00
16255;BME280;8235;52.198;9.904;2022-11-18T00:21:39;99174.13;;;5.12;100.00
16255;BME280;8235;52.198;9.904;2022-11-18T00:24:06;99171.69;;;5.09;100.00
16255;BME280;8235;52.198;9.904;2022-11-18T00:26:34;99178.75;;;5.08;100.00
16255;BME280;8235;52.198;9.904;2022-11-18T00:29:01;99180.53;;;5.08;100.00
16255;BME280;8235;52.198;9.904;2022-11-18T00:31:27;99178.00;;;5.06;100.00
16255;BME280;8235;52.198;9.904;2022-11-18T00:33:54;99174.50;;;5.06;100.00
16255;BME280;8235;52.198;9.904;2022-11-18T00:36:20;99183.28;;;5.06;100.00
16255;BME280;8235;52.198;9.904;2022-11-18T00:38:47;99180.72;;;5.05;100.00
16255;BME280;8235;52.198;9.904;2022-11-18T00:41:14;99189.50;;;5.05;100.00
16255;BME280;8235;52.198;9.904;2022-11-18T00:43:42;99184.13;;;5.07;100.00
16255;BME280;8235;52.198;9.904;2022-11-18T00:46:09;99190.25;;;5.07;100.00
16255;BME280;8235;52.198;9.904;2022-11-18T00:48:36;99199.97;;;5.07;100.00
16255;BME280;8235;52.198;9.904;2022-11-18T00:51:08;99195.63;;;5.06;100.00
16255;BME280;8235;52.198;9.904;2022-11-18T00:53:35;99194.88;;;5.04;100.00
16255;BME280;8235;52.198;9.904;2022-11-18T00:56:01;99203.72;;;5.03;100.00
16255;BME280;8235;52.198;9.904;2022-11-18T00:58:28;99201.09;;;5.03;100.00
16255;BME280;8235;52.198;9.904;2022-11-18T01:00:56;99209.00;;;5.03;100.00
16255;BME280;8235;52.198;9.904;2022-11-18T01:03:23;99208.06;;;5.04;100.00
16255;BME280;8235;52.198;9.904;2022-11-18T01:05:50;99209.84;;;5.03;100.00
16255;BME280;8235;52.198;9.904;2022-11-18T01:08:17;99203.84;;;5.01;100.00
16255;BME280;8235;52.198;9.904;2022-11-18T01:10:44;99215.22;;;5.02;100.00
16255;BME280;8235;52.198;9.904;2022-11-18T01:13:12;99218.72;;;5.02;100.00
16255;BME280;8235;52.198;9.904;2022-11-18T01:15:45;99219.56;;;5.03;100.00
16255;BME280;8235;52.198;9.904;2022-11-18T01:18:13;99216.91;;;5.03;100.00
16255;BME280;8235;52.198;9.904;2022-11-18T01:20:40;99216.91;;;5.03;100.00
16255;BME280;8235;52.198;9.904;2022-11-18T01:23:06;99223.03;;;5.03;100.00
16255;BME280;8235;52.198;9.904;2022-11-18T01:25:34;99221.25;;;5.04;100.00
16255;BME280;8235;52.198;9.904;2022-11-18T01:28:01;99224.84;;;5.03;100.00
16255;BME280;8235;52.198;9.904;2022-11-18T01:30:28;99215.22;;;5.02;100.00
16255;BME280;8235;52.198;9.904;2022-11-18T01:32:54;99213.56;;;5.01;100.00
16255;BME280;8235;52.198;9.904;2022-11-18T01:35:22;99215.34;;;5.00;100.00
16255;BME280;8235;52.198;9.904;2022-11-18T01:37:48;99218.94;;;4.99;100.00
16255;BME280;8235;52.198;9.904;2022-11-18T01:40:15;99229.38;;;5.01;100.00
16255;BME280;8235;52.198;9.904;2022-11-18T01:42:41;99227.69;;;5.00;100.00
16255;BME280;8235;52.198;9.904;2022-11-18T01:45:20;99228.63;;;4.99;100.00
16255;BME280;8235;52.198;9.904;2022-11-18T01:47:54;99230.34;;;5.00;100.00
16255;BME280;8235;52.198;9.904;2022-11-18T01:50:25;99230.34;;;5.00;100.00
16255;BME280;8235;52.198;9.904;2022-11-18T01:52:55;99238.25;;;5.00;100.00
16255;BME280;8235;52.198;9.904;2022-11-18T01:55:25;99237.41;;;4.99;100.00
16255;BME280;8235;52.198;9.904;2022-11-18T01:57:57;99248.81;;;5.00;100.00
16255;BME280;8235;52.198;9.904;2022-11-18T02:00:26;99250.59;;;4.99;100.00
16255;BME280;8235;52.198;9.904;2022-11-18T02:02:53;99247.84;;;5.01;100.00
16255;BME280;8235;52.198;9.904;2022-11-18T02:05:20;99246.88;;;5.02;100.00
16255;BME280;8235;52.198;9.904;2022-11-18T02:07:48;99245.09;;;5.02;100.00
16255;BME280;8235;52.198;9.904;2022-11-18T02:10:18;99244.16;;;5.03;100.00
16255;BME280;8235;52.198;9.904;2022-11-18T02:12:45;99241.50;;;5.03;100.00
16255;BME280;8235;52.198;9.904;2022-11-18T02:15:12;99238.03;;;5.03;100.00
16255;BME280;8235;52.198;9.904;2022-11-18T02:17:45;99233.69;;;5.02;100.00
16255;BME280;8235;52.198;9.904;2022-11-18T02:20:28;99244.25;;;5.02;100.00
16255;BME280;8235;52.198;9.904;2022-11-18T02:26:14;99239.09;;;5.00;100.00
16255;BME280;8235;52.198;9.904;2022-11-18T02:28:57;99240.13;;;4.98;100.00
16255;BME280;8235;52.198;9.904;2022-11-18T02:31:30;99248.13;;;4.96;100.00
16255;BME280;8235;52.198;9.904;2022-11-18T02:34:02;99249.25;;;4.92;100.00
16255;BME280;8235;52.198;9.904;2022-11-18T02:36:39;99252.09;;;4.89;100.00
16255;BME280;8235;52.198;9.904;2022-11-18T02:39:11;99256.44;;;4.90;100.00
16255;BME280;8235;52.198;9.904;2022-11-18T02:41:41;99262.63;;;4.89;100.00
16255;BME280;8235;52.198;9.904;2022-11-18T02:44:13;99260.84;;;4.89;100.00
16255;BME280;8235;52.198;9.904;2022-11-18T02:46:43;99253.03;;;4.88;100.00
16255;BME280;8235;52.198;9.904;2022-11-18T02:49:14;99262.72;;;4.87;100.00
16255;BME280;8235;52.198;9.904;2022-11-18T02:51:44;99261.88;;;4.87;100.00
16255;BME280;8235;52.198;9.904;2022-11-18T02:54:13;99260.00;;;4.89;100.00
16255;BME280;8235;52.198;9.904;2022-11-18T02:56:41;99268.00;;;4.87;100.00
16255;BME280;8235;52.198;9.904;2022-11-18T02:59:08;99266.13;;;4.89;100.00
16255;BME280;8235;52.198;9.904;2022-11-18T03:01:36;99260.84;;;4.89;100.00
16255;BME280;8235;52.198;9.904;2022-11-18T03:04:03;99266.13;;;4.89;100.00
16255;BME280;8235;52.198;9.904;2022-11-18T03:06:33;99266.88;;;4.92;100.00
16255;BME280;8235;52.198;9.904;2022-11-18T03:09:08;99267.72;;;4.92;100.00
16255;BME280;8235;52.198;9.904;2022-11-18T03:11:43;99280.06;;;4.92;100.00
16255;BME280;8235;52.198;9.904;2022-11-18T03:14:19;99273.09;;;4.91;100.00
16255;BME280;8235;52.198;9.904;2022-11-18T03:16:57;99272.34;;;4.88;100.00
16255;BME280;8235;52.198;9.904;2022-11-18T03:19:33;99274.22;;;4.86;100.00
16255;BME280;8235;52.198;9.904;2022-11-18T03:22:09;99270.75;;;4.86;100.00
16255;BME280;8235;52.198;9.904;2022-11-18T03:24:40;99273.47;;;4.84;100.00
16255;BME280;8235;52.198;9.904;2022-11-18T03:27:14;99284.16;;;4.83;100.00
16255;BME280;8235;52.198;9.904;2022-11-18T03:29:46;99284.25;;;4.81;100.00
16255;BME280;8235;52.198;9.904;2022-11-18T03:32:17;99287.81;;;4.80;100.00
16255;BME280;8235;52.198;9.904;2022-11-18T03:34:46;99299.31;;;4.79;100.00
16255;BME280;8235;52.198;9.904;2022-11-18T03:37:15;99304.75;;;4.76;100.00
16255;BME280;8235;52.198;9.904;2022-11-18T03:39:48;99308.25;;;4.77;100.00
16255;BME280;8235;52.198;9.904;2022-11-18T03:42:19;99312.69;;;4.76;100.00
16255;BME280;8235;52.198;9.904;2022-11-18T03:44:51;99319.81;;;4.74;100.00
16255;BME280;8235;52.198;9.904;2022-11-18T03:47:24;99325.19;;;4.73;100.00
16255;BME280;8235;52.198;9.904;2022-11-18T03:49:56;99336.59;;;4.73;100.00
16255;BME280;8235;52.198;9.904;2022-11-18T03:52:27;99339.22;;;4.73;100.00
16255;BME280;8235;52.198;9.904;2022-11-18T03:54:57;99332.25;;;4.72;100.00
16255;BME280;8235;52.198;9.904;2022-11-18T03:57:30;99337.63;;;4.71;100.00
16255;BME280;8235;52.198;9.904;2022-11-18T04:00:05;99336.78;;;4.70;100.00
16255;BME280;8235;52.198;9.904;2022-11-18T04:02:33;99346.38;;;4.71;100.00
16255;BME280;8235;52.198;9.904;2022-11-18T04:05:02;99342.13;;;4.69;100.00
16255;BME280;8235;52.198;9.904;2022-11-18T04:07:32;99357.09;;;4.68;100.00
16255;BME280;8235;52.198;9.904;2022-11-18T04:10:03;99352.03;;;4.65;100.00
16255;BME280;8235;52.198;9.904;2022-11-18T04:12:34;99353.72;;;4.66;100.00
16255;BME280;8235;52.198;9.904;2022-11-18T04:15:04;99363.63;;;4.63;100.00
16255;BME280;8235;52.198;9.904;2022-11-18T04:17:31;99363.63;;;4.63;100.00
16255;BME280;8235;52.198;9.904;2022-11-18T04:19:58;99365.50;;;4.61;100.00
16255;BME280;8235;52.198;9.904;2022-11-18T04:22:25;99356.72;;;4.60;100.00
16255;BME280;8235;52.198;9.904;2022-11-18T04:24:51;99364.81;;;4.57;100.00
16255;BME280;8235;52.198;9.904;2022-11-18T04:27:18;99371.97;;;4.55;100.00
16255;BME280;8235;52.198;9.904;2022-11-18T04:29:44;99368.56;;;4.53;100.00
16255;BME280;8235;52.198;9.904;2022-11-18T04:32:11;99369.50;;;4.52;100.00
16255;BME280;8235;52.198;9.904;2022-11-18T04:34:37;99373.94;;;4.51;100.00
16255;BME280;8235;52.198;9.904;2022-11-18T04:37:05;99378.44;;;4.49;100.00
16255;BME280;8235;52.198;9.904;2022-11-18T04:39:31;99376.75;;;4.48;100.00
16255;BME280;8235;52.198;9.904;2022-11-18T04:41:58;99372.44;;;4.47;100.00
16255;BME280;8235;52.198;9.904;2022-11-18T04:44:26;99372.44;;;4.47;100.00
16255;BME280;8235;52.198;9.904;2022-11-18T04:46:54;99370.75;;;4.46;100.00
16255;BME280;8235;52.198;9.904;2022-11-18T04:49:22;99377.81;;;4.46;100.00
16255;BME280;8235;52.198;9.904;2022-11-18T04:51:49;99384.84;;;4.45;100.00
16255;BME280;8235;52.198;9.904;2022-11-18T04:54:19;99386.66;;;4.45;100.00
16255;BME280;8235;52.198;9.904;2022-11-18T04:56:46;99384.19;;;4.42;100.00
16255;BME280;8235;52.198;9.904;2022-11-18T04:59:13;99394.81;;;4.40;100.00
16255;BME280;8235;52.198;9.904;2022-11-18T05:01:40;99392.19;;;4.40;100.00
16255;BME280;8235;52.198;9.904;2022-11-18T05:04:07;99392.19;;;4.40;100.00
16255;BME280;8235;52.198;9.904;2022-11-18T05:06:33;99393.19;;;4.38;100.00
16255;BME280;8235;52.198;9.904;2022-11-18T05:09:00;99393.19;;;4.38;100.00
16255;BME280;8235;52.198;9.904;2022-11-18T05:11:28;99394.13;;;4.37;100.00
16255;BME280;8235;52.198;9.904;2022-11-18T05:14:13;99396.94;;;4.34;100.00
16255;BME280;8235;52.198;9.904;2022-11-18T05:16:39;99400.44;;;4.34;100.00
16255;BME280;8235;52.198;9.904;2022-11-18T05:19:06;99399.56;;;4.34;100.00
16255;BME280;8235;52.198;9.904;2022-11-18T05:21:33;99397.03;;;4.32;100.00
16255;BME280;8235;52.198;9.904;2022-11-18T05:24:00;99409.34;;;4.32;100.00
16255;BME280;8235;52.198;9.904;2022-11-18T05:26:28;99412.00;;;4.32;100.00
16255;BME280;8235;52.198;9.904;2022-11-18T05:28:54;99415.56;;;4.31;100.00
16255;BME280;8235;52.198;9.904;2022-11-18T05:31:21;99418.19;;;4.31;100.00
16255;BME280;8235;52.198;9.904;2022-11-18T05:33:48;99418.19;;;4.31;100.00
16255;BME280;8235;52.198;9.904;2022-11-18T05:36:16;99421.03;;;4.28;100.00
16255;BME280;8235;52.198;9.904;2022-11-18T05:38:43;99418.31;;;4.29;100.00
16255;BME280;8235;52.198;9.904;2022-11-18T05:41:10;99420.09;;;4.29;100.00
16255;BME280;8235;52.198;9.904;2022-11-18T05:43:58;99436.84;;;4.28;100.00
16255;BME280;8235;52.198;9.904;2022-11-18T05:46:24;99439.56;;;4.26;100.00
16255;BME280;8235;52.198;9.904;2022-11-18T05:48:51;99446.72;;;4.24;100.00
16255;BME280;8235;52.198;9.904;2022-11-18T05:51:17;99446.78;;;4.23;100.00
16255;BME280;8235;52.198;9.904;2022-11-18T05:53:44;99442.44;;;4.22;100.00
16255;BME280;8235;52.198;9.904;2022-11-18T05:56:15;99451.28;;;4.21;100.00
16255;BME280;8235;52.198;9.904;2022-11-18T05:58:43;99445.19;;;4.20;100.00
16255;BME280;8235;52.198;9.904;2022-11-18T06:01:14;99447.91;;;4.18;100.00
16255;BME280;8235;52.198;9.904;2022-11-18T06:03:41;99454.09;;;4.17;100.00
16255;BME280;8235;52.198;9.904;2022-11-18T06:06:09;99456.72;;;4.17;100.00
16255;BME280;8235;52.198;9.904;2022-11-18T06:08:38;99458.59;;;4.15;100.00
16255;BME280;8235;52.198;9.904;2022-11-18T06:11:07;99470.06;;;4.14;100.00
16255;BME280;8235;52.198;9.904;2022-11-18T06:13:39;99463.09;;;4.13;100.00
16255;BME280;8235;52.198;9.904;2022-11-18T06:16:08;99471.94;;;4.12;100.00
16255;BME280;8235;52.198;9.904;2022-11-18T06:18:36;99466.88;;;4.09;100.00
16255;BME280;8235;52.198;9.904;2022-11-18T06:21:04;99477.41;;;4.09;100.00
16255;BME280;8235;52.198;9.904;2022-11-18T06:23:33;99474.84;;;4.08;100.00
16255;BME280;8235;52.198;9.904;2022-11-18T06:26:00;99476.63;;;4.07;100.00
16255;BME280;8235;52.198;9.904;2022-11-18T06:28:28;99485.47;;;4.06;100.00
16255;BME280;8235;52.198;9.904;2022-11-18T06:30:55;99484.72;;;4.04;100.00
16255;BME280;8235;52.198;9.904;2022-11-18T06:33:23;99490.91;;;4.03;100.00
16255;BME280;8235;52.198;9.904;2022-11-18T06:35:50;99493.63;;;4.02;100.00
16255;BME280;8235;52.198;9.904;2022-11-18T06:38:17;99494.63;;;3.99;100.00
16255;BME280;8235;52.198;9.904;2022-11-18T06:40:43;99494.63;;;3.99;100.00
16255;BME280;8235;52.198;9.904;2022-11-18T06:43:11;99504.31;;;3.99;100.00
16255;BME280;8235;52.198;9.904;2022-11-18T06:45:57;99494.63;;;3.99;100.00
16255;BME280;8235;52.198;9.904;2022-11-18T06:48:41;99506.09;;;3.98;100.00
16255;BME280;8235;52.198;9.904;2022-11-18T06:51:08;99507.97;;;3.96;100.00
16255;BME280;8235;52.198;9.904;2022-11-18T06:53:35;99516.81;;;3.95;100.00
16255;BME280;8235;52.198;9.904;2022-11-18T06:56:02;99516.06;;;3.93;100.00
16255;BME280;8235;52.198;9.904;2022-11-18T06:58:29;99516.31;;;3.89;100.00
16255;BME280;8235;52.198;9.904;2022-11-18T07:00:55;99519.94;;;3.86;100.00
16255;BME280;8235;52.198;9.904;2022-11-18T07:03:22;99517.63;;;3.80;100.00
16255;BME280;8235;52.198;9.904;2022-11-18T07:05:48;99529.28;;;3.76;100.00
16255;BME280;8235;52.198;9.904;2022-11-18T07:08:16;99527.59;;;3.75;100.00
16255;BME280;8235;52.198;9.904;2022-11-18T07:10:50;99532.00;;;3.74;100.00
16255;BME280;8235;52.198;9.904;2022-11-18T07:13:17;99532.84;;;3.75;100.00
16255;BME280;8235;52.198;9.904;2022-11-18T07:15:43;99534.56;;;3.76;100.00
16255;BME280;8235;52.198;9.904;2022-11-18T07:18:10;99533.72;;;3.75;100.00
16255;BME280;8235;52.198;9.904;2022-11-18T07:20:36;99538.97;;;3.75;100.00
16255;BME280;8235;52.198;9.904;2022-11-18T07:23:03;99533.59;;;3.77;100.00
16255;BME280;8235;52.198;9.904;2022-11-18T07:25:31;99549.31;;;3.78;100.00
16255;BME280;8235;52.198;9.904;2022-11-18T07:27:57;99549.31;;;3.78;100.00
16255;BME280;8235;52.198;9.904;2022-11-18T07:30:24;99549.31;;;3.78;100.00
16255;BME280;8235;52.198;9.904;2022-11-18T07:32:50;99555.72;;;3.74;100.00
16255;BME280;8235;52.198;9.904;2022-11-18T07:35:17;99560.97;;;3.74;100.00
16255;BME280;8235;52.198;9.904;2022-11-18T07:37:43;99566.31;;;3.73;100.00
16255;BME280;8235;52.198;9.904;2022-11-18T07:40:10;99568.94;;;3.73;100.00
16255;BME280;8235;52.198;9.904;2022-11-18T07:42:37;99565.53;;;3.71;100.00
16255;BME280;8235;52.198;9.904;2022-11-18T07:45:09;99571.75;;;3.70;100.00
16255;BME280;8235;52.198;9.904;2022-11-18T07:47:35;99575.31;;;3.69;100.00
16255;BME280;8235;52.198;9.904;2022-11-18T07:50:02;99577.16;;;3.67;100.00
16255;BME280;8235;52.198;9.904;2022-11-18T07:52:29;99589.53;;;3.65;100.00
16255;BME280;8235;52.198;9.904;2022-11-18T07:54:55;99589.53;;;3.65;100.00
16255;BME280;8235;52.198;9.904;2022-11-18T07:57:22;99601.00;;;3.64;100.00
16255;BME280;8235;52.198;9.904;2022-11-18T07:59:49;99594.13;;;3.61;100.00
16255;BME280;8235;52.198;9.904;2022-11-18T08:02:16;99602.09;;;3.60;100.00
16255;BME280;8235;52.198;9.904;2022-11-18T08:04:42;99606.63;;;3.58;100.00
16255;BME280;8235;52.198;9.904;2022-11-18T08:07:09;99606.69;;;3.56;100.00
16255;BME280;8235;52.198;9.904;2022-11-18T08:09:35;99609.41;;;3.55;100.00
16255;BME280;8235;52.198;9.904;2022-11-18T08:12:02;99608.69;;;3.51;100.00
16255;BME280;8235;52.198;9.904;2022-11-18T08:14:29;99614.03;;;3.49;100.00
16255;BME280;8235;52.198;9.904;2022-11-18T08:16:57;99615.81;;;3.49;100.00
16255;BME280;8235;52.198;9.904;2022-11-18T08:19:23;99620.22;;;3.48;100.00
16255;BME280;8235;52.198;9.904;2022-11-18T08:21:50;99618.53;;;3.47;100.00
16255;BME280;8235;52.198;9.904;2022-11-18T08:24:16;99627.34;;;3.46;100.00
16255;BME280;8235;52.198;9.904;2022-11-18T08:26:43;99628.34;;;3.44;100.00
16255;BME280;8235;52.198;9.904;2022-11-18T08:29:09;99630.19;;;3.42;100.00
16255;BME280;8235;52.198;9.904;2022-11-18T08:31:35;99633.75;;;3.41;100.00
16255;BME280;8235;52.198;9.904;2022-11-18T08:34:05;99633.88;;;3.39;100.00
16255;BME280;8235;52.198;9.904;2022-11-18T08:36:34;99640.06;;;3.38;100.00
16255;BME280;8235;52.198;9.904;2022-11-18T08:39:03;99633.25;;;3.34;100.00
16255;BME280;8235;52.198;9.904;2022-11-18T08:41:32;99641.28;;;3.31;100.00
16255;BME280;8235;52.198;9.904;2022-11-18T08:43:59;99643.13;;;3.29;100.00
16255;BME280;8235;52.198;9.904;2022-11-18T08:46:25;99651.03;;;3.29;100.00
16255;BME280;8235;52.198;9.904;2022-11-18T08:48:52;99652.03;;;3.27;100.00
16255;BME280;8235;52.198;9.904;2022-11-18T08:51:20;99658.28;;;3.24;100.00
16255;BME280;8235;52.198;9.904;2022-11-18T08:53:46;99660.16;;;3.22;100.00
16255;BME280;8235;52.198;9.904;2022-11-18T08:56:14;99663.72;;;3.21;100.00
16255;BME280;8235;52.198;9.904;2022-11-18T08:58:41;99662.03;;;3.20;100.00
16255;BME280;8235;52.198;9.904;2022-11-18T09:01:08;99670.84;;;3.19;100.00
16255;BME280;8235;52.198;9.904;2022-11-18T09:03:35;99676.09;;;3.19;100.00
16255;BME280;8235;52.198;9.904;2022-11-18T09:06:06;99683.06;;;3.20;100.00
16255;BME280;8235;52.198;9.904;2022-11-18T09:08:34;99682.13;;;3.21;100.00
16255;BME280;8235;52.198;9.904;2022-11-18T09:11:04;99677.81;;;3.20;100.00
16255;BME280;8235;52.198;9.904;2022-11-18T09:13:30;99691.03;;;3.19;100.00
16255;BME280;8235;52.198;9.904;2022-11-18T09:15:57;99690.19;;;3.18;100.00
16255;BME280;8235;52.198;9.904;2022-11-18T09:18:23;99691.03;;;3.19;100.00
16255;BME280;8235;52.198;9.904;2022-11-18T09:20:54;99695.44;;;3.18;100.00
16255;BME280;8235;52.198;9.904;2022-11-18T09:23:20;99696.38;;;3.17;100.00
16255;BME280;8235;52.198;9.904;2022-11-18T09:25:48;99711.38;;;3.15;100.00
16255;BME280;8235;52.198;9.904;2022-11-18T09:28:21;99713.22;;;3.13;100.00
16255;BME280;8235;52.198;9.904;2022-11-18T09:30:48;99710.72;;;3.10;100.00
16255;BME280;8235;52.198;9.904;2022-11-18T09:33:14;99722.25;;;3.07;100.00
16255;BME280;8235;52.198;9.904;2022-11-18T09:35:41;99720.53;;;3.06;100.00
16255;BME280;8235;52.198;9.904;2022-11-18T09:38:07;99722.41;;;3.04;100.00
16255;BME280;8235;52.198;9.904;2022-11-18T09:40:41;99729.44;;;3.04;100.00
16255;BME280;8235;52.198;9.904;2022-11-18T09:43:16;99730.44;;;3.01;100.00
16255;BME280;8235;52.198;9.904;2022-11-18T09:45:49;99731.38;;;3.00;100.00
16255;BME280;8235;52.198;9.904;2022-11-18T09:48:20;99737.63;;;2.98;100.00
16255;BME280;8235;52.198;9.904;2022-11-18T09:51:08;99747.22;;;2.99;100.00
16255;BME280;8235;52.198;9.904;2022-11-18T09:53:35;99735.00;;;2.98;100.00
16255;BME280;8235;52.198;9.904;2022-11-18T09:56:09;99742.88;;;2.98;100.00
16255;BME280;8235;52.198;9.904;2022-11-18T09:58:38;99738.59;;;2.95;100.00
16255;BME280;8235;52.198;9.904;2022-11-18T10:01:10;99745.00;;;2.90;100.00
16255;BME280;8235;52.198;9.904;2022-11-18T10:03:37;99741.59;;;2.88;100.00
16255;BME280;8235;52.198;9.904;2022-11-18T10:06:15;99749.47;;;2.88;100.00
16255;BME280;8235;52.198;9.904;2022-11-18T10:08:46;99754.72;;;2.88;100.00
16255;BME280;8235;52.198;9.904;2022-11-18T10:11:18;99752.19;;;2.86;100.00
16255;BME280;8235;52.198;9.904;2022-11-18T10:13:54;99757.59;;;2.83;100.00
16255;BME280;8235;52.198;9.904;2022-11-18T10:16:43;99760.22;;;2.83;100.00
16255;BME280;8235;52.198;9.904;2022-11-18T10:22:21;99776.06;;;2.82;100.00
16255;BME280;8235;52.198;9.904;2022-11-18T10:24:51;99781.47;;;2.78;100.00
16255;BME280;8235;52.198;9.904;2022-11-18T10:29:51;99787.66;;;2.77;100.00
16255;BME280;8235;52.198;9.904;2022-11-18T10:32:19;99791.13;;;2.78;100.00
16255;BME280;8235;52.198;9.904;2022-11-18T10:34:47;99793.81;;;2.76;100.00
16255;BME280;8235;52.198;9.904;2022-11-18T10:37:22;99800.00;;;2.75;100.00
16255;BME280;8235;52.198;9.904;2022-11-18T10:39:49;99800.00;;;2.75;100.00
16255;BME280;8235;52.198;9.904;2022-11-18T10:42:22;99800.91;;;2.74;100.00
16255;BME280;8235;52.198;9.904;2022-11-18T10:44:51;99807.09;;;2.73;100.00
16255;BME280;8235;52.198;9.904;2022-11-18T10:47:24;99799.34;;;2.70;100.00
16255;BME280;8235;52.198;9.904;2022-11-18T10:49:52;99811.56;;;2.71;100.00
16255;BME280;8235;52.198;9.904;2022-11-18T10:52:18;99805.47;;;2.71;100.00
16255;BME280;8235;52.198;9.904;2022-11-18T10:55:05;99812.44;;;2.72;100.00
16255;BME280;8235;52.198;9.904;2022-11-18T10:57:34;99817.69;;;2.72;100.00
16255;BME280;8235;52.198;9.904;2022-11-18T11:00:30;99812.44;;;2.72;100.00
16255;BME280;8235;52.198;9.904;2022-11-18T11:02:53;99813.34;;;2.71;100.00
16255;BME280;8235;52.198;9.904;2022-11-18T11:05:21;99817.97;;;2.66;100.00
16255;BME280;8235;52.198;9.904;2022-11-18T11:08:00;99818.97;;;2.63;100.00
16255;BME280;8235;52.198;9.904;2022-11-18T11:10:27;99830.41;;;2.62;100.00
16255;BME280;8235;52.198;9.904;2022-11-18T11:12:56;99825.19;;;2.61;100.00
16255;BME280;8235;52.198;9.904;2022-11-18T11:15:27;99833.16;;;2.59;100.00
16255;BME280;8235;52.198;9.904;2022-11-18T11:18:02;99828.88;;;2.57;100.00
16255;BME280;8235;52.198;9.904;2022-11-18T11:20:47;99825.47;;;2.55;100.00
16255;BME280;8235;52.198;9.904;2022-11-18T11:23:14;99833.34;;;2.55;100.00
16255;BME280;8235;52.198;9.904;2022-11-18T11:25:43;99836.97;;;2.52;99.54
16255;BME280;8235;52.198;9.904;2022-11-18T11:28:20;99837.97;;;2.50;99.36
16255;BME280;8235;52.198;9.904;2022-11-18T11:31:00;99840.78;;;2.45;99.32
16255;BME280;8235;52.198;9.904;2022-11-18T11:33:35;99847.03;;;2.42;99.65
16255;BME280;8235;52.198;9.904;2022-11-18T11:36:31;99848.00;;;2.40;100.00
16255;BME280;8235;52.198;9.904;2022-11-18T11:39:07;99849.84;;;2.38;99.19
16255;BME280;8235;52.198;9.904;2022-11-18T11:41:46;99851.69;;;2.36;99.82
16255;BME280;8235;52.198;9.904;2022-11-18T11:44:25;99856.22;;;2.32;99.39
16255;BME280;8235;52.198;9.904;2022-11-18T11:47:05;99858.75;;;2.34;99.66
16255;BME280;8235;52.198;9.904;2022-11-18T11:50:00;99858.75;;;2.34;99.71
16255;BME280;8235;52.198;9.904;2022-11-18T11:52:33;99864.03;;;2.34;99.51
16255;BME280;8235;52.198;9.904;2022-11-18T11:55:14;99857.09;;;2.33;99.75
16255;BME280;8235;52.198;9.904;2022-11-18T11:57:51;99861.41;;;2.34;99.31
16255;BME280;8235;52.198;9.904;2022-11-18T12:00:23;99869.44;;;2.31;99.59
16255;BME280;8235;52.198;9.904;2022-11-18T12:02:59;99863.44;;;2.27;99.12
16255;BME280;8235;52.198;9.904;2022-11-18T12:05:30;99865.28;;;2.25;99.29
16255;BME280;8235;52.198;9.904;2022-11-18T12:08:00;99865.34;;;2.24;99.16
16255;BME280;8235;52.198;9.904;2022-11-18T12:10:32;99869.69;;;2.25;99.58
16255;BME280;8235;52.198;9.904;2022-11-18T12:16:09;99879.28;;;2.26;99.52
16255;BME280;8235;52.198;9.904;2022-11-18T12:18:41;99874.88;;;2.26;99.72
16255;BME280;8235;52.198;9.904;2022-11-18T12:21:51;99875.84;;;2.24;99.50
16255;BME280;8235;52.198;9.904;2022-11-18T12:24:29;99881.16;;;2.22;99.78
16255;BME280;8235;52.198;9.904;2022-11-18T12:26:57;99874.31;;;2.18;99.49
16255;BME280;8235;52.198;9.904;2022-11-18T12:29:28;99873.63;;;2.15;98.90
16255;BME280;8235;52.198;9.904;2022-11-18T12:31:57;99875.38;;;2.14;99.53
16255;BME280;8235;52.198;9.904;2022-11-18T12:34:30;99890.19;;;2.15;99.57
16255;BME280;8235;52.198;9.904;2022-11-18T12:37:39;99884.13;;;2.15;99.08
16255;BME280;8235;52.198;9.904;2022-11-18T12:40:09;99883.13;;;2.17;99.69
16255;BME280;8235;52.198;9.904;2022-11-18T12:42:40;99886.53;;;2.19;99.96
16255;BME280;8235;52.198;9.904;2022-11-18T12:45:55;99893.44;;;2.22;99.74
16255;BME280;8235;52.198;9.904;2022-11-18T12:48:31;99894.31;;;2.22;99.73
16255;BME280;8235;52.198;9.904;2022-11-18T12:50:59;99897.00;;;2.21;99.61
16255;BME280;8235;52.198;9.904;2022-11-18T12:53:35;99893.63;;;2.17;99.79
16255;BME280;8235;52.198;9.904;2022-11-18T12:56:10;99907.63;;;2.18;99.77
16255;BME280;8235;52.198;9.904;2022-11-18T12:58:37;99899.03;;;2.14;99.50
16255;BME280;8235;52.198;9.904;2022-11-18T13:01:06;99909.53;;;2.14;99.73
16255;BME280;8235;52.198;9.904;2022-11-18T13:03:33;99910.44;;;2.13;99.56
16255;BME280;8235;52.198;9.904;2022-11-18T13:06:03;99907.09;;;2.09;99.49
16255;BME280;8235;52.198;9.904;2022-11-18T13:08:32;99914.97;;;2.09;99.17
16255;BME280;8235;52.198;9.904;2022-11-18T13:11:06;99919.44;;;2.07;98.80
16255;BME280;8235;52.198;9.904;2022-11-18T13:13:51;99920.28;;;2.08;99.09
16255;BME280;8235;52.198;9.904;2022-11-18T13:16:39;99923.88;;;2.05;98.49
16255;BME280;8235;52.198;9.904;2022-11-18T13:19:23;99926.63;;;2.02;98.58
16255;BME280;8235;52.198;9.904;2022-11-18T13:21:53;99924.91;;;2.01;98.40
16255;BME280;8235;52.198;9.904;2022-11-18T13:24:48;99926.75;;;1.99;98.67
16255;BME280;8235;52.198;9.904;2022-11-18T13:27:23;99924.97;;;2.00;98.48
16255;BME280;8235;52.198;9.904;2022-11-18T13:29:57;99929.38;;;1.99;97.87
16255;BME280;8235;52.198;9.904;2022-11-18T13:32:28;99936.38;;;1.99;98.42
16255;BME280;8235;52.198;9.904;2022-11-18T13:34:56;99939.03;;;1.99;98.38
16255;BME280;8235;52.198;9.904;2022-11-18T13:37:24;99944.28;;;1.99;98.06
16255;BME280;8235;52.198;9.904;2022-11-18T13:39:53;99950.38;;;1.99;98.00
16255;BME280;8235;52.198;9.904;2022-11-18T13:42:21;99942.44;;;2.01;97.83